createdAt,value
2022-09-07T00:03:02.093Z,15.87
2022-09-07T00:08:06.464Z,15.77
2022-09-07T00:13:11.954Z,15.71
2022-09-07T00:18:16.124Z,15.61
2022-09-07T00:23:20.242Z,15.26
2022-09-07T00:28:25.716Z,15.56
2022-09-07T00:33:30.291Z,15.71
2022-09-07T00:38:34.924Z,15.09
2022-09-07T00:43:42.666Z,15.26
2022-09-07T00:48:51.784Z,14.97
2022-09-07T00:53:59.723Z,15.00
2022-09-07T00:59:05.781Z,14.71
2022-09-07T01:04:10.523Z,15.03
2022-09-07T01:09:18.201Z,15.01
2022-09-07T01:14:26.531Z,15.10
2022-09-07T01:20:09.828Z,14.91
2022-09-07T01:25:16.326Z,14.63
2022-09-07T01:30:24.140Z,15.01
2022-09-07T01:35:34.996Z,15.14
2022-09-07T01:40:49.808Z,14.83
2022-09-07T01:45:58.381Z,14.68
2022-09-07T01:51:05.029Z,14.42
2022-09-07T01:56:12.711Z,14.29
2022-09-07T02:01:25.385Z,14.27
2022-09-07T02:06:35.035Z,14.03
2022-09-07T02:11:42.496Z,13.97
2022-09-07T02:16:54.119Z,14.18
2022-09-07T02:22:01.994Z,14.17
2022-09-07T02:27:12.868Z,14.40
2022-09-07T02:32:18.532Z,14.21
2022-09-07T02:37:24.005Z,14.42
2022-09-07T02:42:31.628Z,14.24
2022-09-07T02:47:53.424Z,14.42
2022-09-07T02:53:15.803Z,14.36
2022-09-07T02:58:32.035Z,14.03
2022-09-07T03:03:47.829Z,13.92
2022-09-07T03:08:55.945Z,14.17
2022-09-07T03:14:13.339Z,13.97
2022-09-07T03:19:19.189Z,13.22
2022-09-07T03:24:23.250Z,13.54
2022-09-07T03:29:27.586Z,13.46
2022-09-07T03:34:33.620Z,13.55
2022-09-07T03:39:38.019Z,13.53
2022-09-07T03:44:42.215Z,13.41
2022-09-07T03:49:49.640Z,13.50
2022-09-07T03:54:53.764Z,13.42
2022-09-07T03:59:57.910Z,13.32
2022-09-07T04:05:03.495Z,13.10
2022-09-07T04:10:08.604Z,13.17
2022-09-07T04:15:12.821Z,13.34
2022-09-07T04:20:18.666Z,13.46
2022-09-07T04:25:22.778Z,13.28
2022-09-07T04:30:26.927Z,13.36
2022-09-07T04:35:33.998Z,13.30
2022-09-07T04:40:38.070Z,13.55
2022-09-07T04:45:43.965Z,13.68
2022-09-07T04:50:49.481Z,13.56
2022-09-07T04:55:53.709Z,13.71
2022-09-07T05:01:02.964Z,13.86
2022-09-07T05:06:09.008Z,13.53
2022-09-07T05:11:14.819Z,13.35
2022-09-07T05:16:23.348Z,13.23
2022-09-07T05:21:31.328Z,13.50
2022-09-07T05:26:37.157Z,13.92
2022-09-07T05:31:41.227Z,13.90
2022-09-07T05:36:46.824Z,14.27
2022-09-07T05:41:50.942Z,14.28
2022-09-07T05:46:56.278Z,14.58
2022-09-07T05:52:01.802Z,15.00
2022-09-07T05:57:07.394Z,15.12
2022-09-07T06:02:15.045Z,15.34
2022-09-07T06:07:22.491Z,15.59
2022-09-07T06:12:27.384Z,15.57
2022-09-07T06:17:33.306Z,15.91
2022-09-07T06:22:39.768Z,15.82
2022-09-07T06:27:43.943Z,16.20
2022-09-07T06:32:48.727Z,16.53
2022-09-07T06:37:54.510Z,16.54
2022-09-07T06:42:58.974Z,16.57
2022-09-07T06:48:03.348Z,16.92
2022-09-07T06:58:35.530Z,17.60
2022-09-07T07:03:41.514Z,17.94
2022-09-07T07:08:47.700Z,18.50
2022-09-07T07:13:51.841Z,18.68
2022-09-07T07:18:57.270Z,19.35
2022-09-07T07:24:07.496Z,19.84
2022-09-07T07:29:14.730Z,20.29
2022-09-07T07:34:21.233Z,20.23
2022-09-07T07:50:31.653Z,21.32
2022-09-07T07:55:43.238Z,21.15
2022-09-07T08:00:54.746Z,21.19
2022-09-07T08:06:08.043Z,21.60
2022-09-07T08:11:16.914Z,21.79
2022-09-07T08:16:21.157Z,21.85
2022-09-07T08:21:25.368Z,22.74
2022-09-07T08:26:31.078Z,23.35
2022-09-07T08:31:35.345Z,24.18
2022-09-07T08:36:41.711Z,23.51
2022-09-07T08:42:00.820Z,23.83
2022-09-07T08:47:12.988Z,24.30
2022-09-07T08:52:20.319Z,24.53
2022-09-07T08:57:31.066Z,25.53
2022-09-07T09:02:42.472Z,25.14
2022-09-07T09:07:58.895Z,25.56
2022-09-07T09:13:16.874Z,25.99
2022-09-07T09:24:50.564Z,26.52
2022-09-07T09:29:55.896Z,26.61
2022-09-07T09:35:17.617Z,27.63
2022-09-07T09:40:27.181Z,26.69
2022-09-07T09:56:43.243Z,26.76
2022-09-07T10:07:22.506Z,27.53
2022-09-07T10:12:30.791Z,28.69
2022-09-07T10:17:37.522Z,27.58
2022-09-07T10:22:41.485Z,28.13
2022-09-07T10:27:46.927Z,28.34
2022-09-07T10:33:04.110Z,28.42
2022-09-07T10:38:17.538Z,28.49
2022-09-07T10:43:39.363Z,28.10
2022-09-07T10:48:53.017Z,28.33
2022-09-07T11:05:19.421Z,27.89
2022-09-07T11:10:34.259Z,28.14
2022-09-07T11:15:44.206Z,28.72
2022-09-07T11:20:55.545Z,27.85
2022-09-07T11:26:08.622Z,27.93
2022-09-07T11:31:20.539Z,27.67
2022-09-07T11:36:27.770Z,27.99
2022-09-07T11:41:35.495Z,28.15
2022-09-07T11:46:45.727Z,27.91
2022-09-07T11:51:54.689Z,27.53
2022-09-07T11:57:09.524Z,27.85
2022-09-07T12:02:58.231Z,28.54
2022-09-07T12:08:35.280Z,27.98
2022-09-07T12:13:55.140Z,27.90
2022-09-07T12:19:15.132Z,27.62
2022-09-07T12:24:40.444Z,28.02
2022-09-07T12:29:45.624Z,27.96
2022-09-07T12:34:55.244Z,27.88
2022-09-07T12:40:33.318Z,28.11
2022-09-07T12:45:53.598Z,28.35
2022-09-07T12:51:03.543Z,27.88
2022-09-07T12:56:21.629Z,28.45
2022-09-07T13:01:38.228Z,28.38
2022-09-07T13:07:06.562Z,28.48
2022-09-07T13:17:59.398Z,28.40
2022-09-07T13:23:23.623Z,27.93
2022-09-07T13:28:40.327Z,27.70
2022-09-07T13:33:48.380Z,28.15
2022-09-07T13:38:53.368Z,28.72
2022-09-07T13:44:01.555Z,28.57
2022-09-07T13:49:18.574Z,28.46
2022-09-07T13:54:39.741Z,28.48
2022-09-07T13:59:44.339Z,27.86
2022-09-07T14:04:52.472Z,28.04
2022-09-07T14:10:13.724Z,27.87
2022-09-07T14:15:24.243Z,27.51
2022-09-07T14:20:29.947Z,27.15
2022-09-07T14:26:16.141Z,27.08
2022-09-07T14:30:59.162Z,26.69
2022-09-07T14:36:23.219Z,26.70
2022-09-07T14:41:33.102Z,26.61
2022-09-07T14:46:39.017Z,26.48
2022-09-07T14:51:48.422Z,26.64
2022-09-07T14:57:02.581Z,26.54
2022-09-07T15:02:25.264Z,26.26
2022-09-07T15:07:31.375Z,25.97
2022-09-07T15:12:38.803Z,25.99
2022-09-07T15:17:43.695Z,25.49
2022-09-07T15:22:49.342Z,25.69
2022-09-07T15:27:55.110Z,25.77
2022-09-07T15:33:01.008Z,25.09
2022-09-07T15:38:59.339Z,24.87
2022-09-07T15:43:30.499Z,24.85
2022-09-07T15:48:36.313Z,24.44
2022-09-07T15:59:06.075Z,23.43
2022-09-07T16:04:14.921Z,23.56
2022-09-07T16:09:22.458Z,23.13
2022-09-07T16:14:26.372Z,22.71
2022-09-07T16:19:30.443Z,22.54
2022-09-07T16:24:36.480Z,22.69
2022-09-07T16:29:41.515Z,22.62
2022-09-07T16:34:45.497Z,22.55
2022-09-07T16:39:51.637Z,22.36
2022-09-07T16:46:02.704Z,22.39
2022-09-07T16:50:19.923Z,22.38
2022-09-07T16:55:25.589Z,22.25
2022-09-07T17:00:32.401Z,22.26
2022-09-07T17:05:40.449Z,21.55
2022-09-07T17:10:45.872Z,21.21
2022-09-07T17:15:51.245Z,20.78
2022-09-07T17:20:58.342Z,20.49
2022-09-07T17:26:09.121Z,20.37
2022-09-07T17:32:23.824Z,20.40
2022-09-07T17:36:39.833Z,20.07
2022-09-07T17:41:46.785Z,19.73
2022-09-07T17:46:51.038Z,19.80
2022-09-07T17:51:55.230Z,20.05
2022-09-07T17:57:00.672Z,20.18
2022-09-07T18:02:05.227Z,19.93
2022-09-07T18:07:09.212Z,19.79
2022-09-07T18:12:14.690Z,19.69
2022-09-07T18:17:18.628Z,19.50
2022-09-07T18:22:23.362Z,19.38
2022-09-07T18:27:28.911Z,19.00
2022-09-07T18:32:32.891Z,19.05
2022-09-07T18:37:37.218Z,18.92
2022-09-07T18:42:43.403Z,18.81
2022-09-07T18:47:48.150Z,18.81
2022-09-07T18:52:52.786Z,18.98
2022-09-07T18:57:59.162Z,18.60
2022-09-07T19:03:03.117Z,18.61
2022-09-07T19:08:08.730Z,18.14
2022-09-07T19:13:14.204Z,18.29
2022-09-07T19:18:18.475Z,18.41
2022-09-07T19:23:22.459Z,18.33
2022-09-07T19:28:27.910Z,18.27
2022-09-07T19:33:32.583Z,18.26
2022-09-07T19:38:37.038Z,18.25
2022-09-07T19:43:42.336Z,17.71
2022-09-07T19:48:47.732Z,17.61
2022-09-07T19:53:51.703Z,17.69
2022-09-07T19:58:57.194Z,17.65
2022-09-07T20:04:03.606Z,17.85
2022-09-07T20:09:09.076Z,17.67
2022-09-07T20:14:14.813Z,17.48
2022-09-07T20:19:19.717Z,17.49
2022-09-07T20:24:24.811Z,17.67
2022-09-07T20:29:31.410Z,17.66
2022-09-07T20:34:35.492Z,17.61
2022-09-07T20:39:39.856Z,17.32
2022-09-07T20:44:45.383Z,17.52
2022-09-07T20:49:49.731Z,17.53
2022-09-07T20:54:53.646Z,17.70
2022-09-07T20:59:58.940Z,17.61
2022-09-07T21:05:03.329Z,17.71
2022-09-07T21:10:08.369Z,17.35
2022-09-07T21:15:13.792Z,17.37
2022-09-07T21:20:17.850Z,17.39
2022-09-07T21:25:21.739Z,17.25
2022-09-07T21:30:27.172Z,17.15
2022-09-07T21:35:31.083Z,16.89
2022-09-07T21:40:35.345Z,16.19
2022-09-07T21:45:40.790Z,15.83
2022-09-07T21:50:46.891Z,15.87
2022-09-07T21:55:56.313Z,16.03
2022-09-07T22:06:54.491Z,15.64
2022-09-07T22:12:00.057Z,15.58
2022-09-07T22:17:04.113Z,15.40
2022-09-07T22:22:09.514Z,15.72
2022-09-07T22:27:13.804Z,15.72
2022-09-07T22:32:17.786Z,15.67
2022-09-07T22:37:23.064Z,15.49
2022-09-07T22:42:26.977Z,15.54
2022-09-07T22:47:31.410Z,15.88
2022-09-07T22:52:36.997Z,16.11
2022-09-07T22:57:40.937Z,15.55
2022-09-07T23:02:45.003Z,15.29
2022-09-07T23:07:51.634Z,15.47
2022-09-07T23:12:55.994Z,15.82
2022-09-07T23:17:59.917Z,15.87
2022-09-07T23:23:05.236Z,15.49
2022-09-07T23:28:12.382Z,15.63
2022-09-07T23:33:16.925Z,15.44
2022-09-07T23:38:22.866Z,15.32
2022-09-07T23:43:28.319Z,15.40
2022-09-07T23:48:32.744Z,15.53
2022-09-07T23:53:38.060Z,15.62
2022-09-07T23:58:42.467Z,15.10
